METAR Formatted Surface Weather Observation
Issued by NWS

Home | Current Version | Previous Version | Text Only | Print | Product List | Glossary On
Versions: 1 2 3 4 5 6 7 8 9 10 11 12 13 14 15 16 17 18 19 20 21 22 23 24 25 26 27 28
000
SAUS46 KMTR 252053
MTRBAN
METAR KBAN 252052Z AUTO 22015G24KT CLR 15/M06 A3006 RMK AO2 PK WND
24035/2009 SLP095 T01501061 55003 $



USA.gov is the U.S. government's official web portal to all federal, state and local government web resources and services.